createdAt,value
2017-09-26T00:00:38.993Z,12.44
2017-09-26T00:03:07.336Z,12.35
2017-09-26T00:05:36.765Z,12.35
2017-09-26T00:08:05.087Z,12.35
2017-09-26T00:10:33.401Z,12.39
2017-09-26T00:13:02.510Z,12.34
2017-09-26T00:15:30.829Z,12.40
2017-09-26T00:17:59.170Z,12.45
2017-09-26T00:20:28.340Z,12.50
2017-09-26T00:22:57.246Z,12.36
2017-09-26T00:25:25.563Z,12.30
2017-09-26T00:27:53.887Z,12.20
2017-09-26T00:30:22.220Z,12.16
2017-09-26T00:32:51.307Z,12.22
2017-09-26T00:35:19.642Z,12.20
2017-09-26T00:37:47.971Z,12.25
2017-09-26T00:40:16.318Z,12.19
2017-09-26T00:42:45.421Z,12.25
2017-09-26T00:45:14.491Z,12.17
2017-09-26T00:47:42.799Z,12.21
2017-09-26T00:50:11.841Z,12.21
2017-09-26T00:52:40.155Z,12.24
2017-09-26T00:55:08.446Z,12.31
2017-09-26T00:57:36.763Z,12.23
2017-09-26T01:00:05.052Z,12.24
2017-09-26T01:02:33.346Z,12.30
2017-09-26T01:08:08.375Z,12.31
2017-09-26T01:10:36.692Z,12.24
2017-09-26T01:13:04.975Z,12.18
2017-09-26T01:15:33.289Z,12.14
2017-09-26T01:18:02.372Z,12.15
2017-09-26T01:20:31.765Z,12.20
2017-09-26T01:23:00.088Z,12.25
2017-09-26T01:25:28.412Z,12.26
2017-09-26T01:27:57.227Z,12.29
2017-09-26T01:30:26.731Z,12.32
2017-09-26T01:32:55.833Z,12.26
2017-09-26T01:35:24.923Z,12.21
2017-09-26T01:37:53.262Z,12.20
2017-09-26T01:40:21.584Z,12.16
2017-09-26T01:42:49.909Z,12.22
2017-09-26T01:45:18.254Z,12.30
2017-09-26T01:47:46.573Z,12.27
2017-09-26T01:50:15.685Z,12.23
2017-09-26T01:52:43.994Z,12.24
2017-09-26T01:55:13.130Z,12.27
2017-09-26T01:57:43.708Z,12.33
2017-09-26T02:00:12.583Z,12.18
2017-09-26T02:02:41.027Z,12.25
2017-09-26T02:05:09.361Z,12.23
2017-09-26T02:07:37.708Z,12.24
2017-09-26T02:10:06.049Z,12.27
2017-09-26T02:12:34.392Z,12.26
2017-09-26T02:15:02.820Z,12.19
2017-09-26T02:17:31.144Z,12.17
2017-09-26T02:19:59.562Z,12.13
2017-09-26T02:22:28.646Z,12.19
2017-09-26T02:24:57.756Z,12.24
2017-09-26T02:27:26.079Z,12.21
2017-09-26T02:29:54.432Z,12.26
2017-09-26T02:32:22.774Z,12.21
2017-09-26T02:34:51.109Z,12.26
2017-09-26T02:37:19.467Z,12.21
2017-09-26T02:39:47.787Z,12.23
2017-09-26T02:42:16.207Z,12.22
2017-09-26T02:44:45.296Z,12.17
2017-09-26T02:47:13.990Z,12.18
2017-09-26T02:49:42.315Z,12.26
2017-09-26T02:52:10.631Z,12.29
2017-09-26T02:54:39.727Z,12.23
2017-09-26T02:57:08.929Z,12.24
2017-09-26T02:59:38.032Z,12.16
2017-09-26T03:02:07.128Z,12.08
2017-09-26T03:04:36.308Z,12.05
2017-09-26T03:07:04.642Z,12.02
2017-09-26T03:09:32.989Z,11.98
2017-09-26T03:12:02.136Z,12.04
2017-09-26T03:14:30.451Z,12.07
2017-09-26T03:16:58.793Z,12.15
2017-09-26T03:19:27.131Z,12.16
2017-09-26T03:21:55.478Z,12.23
2017-09-26T03:24:24.572Z,12.24
2017-09-26T03:26:52.890Z,12.22
2017-09-26T03:29:21.253Z,12.22
2017-09-26T03:31:50.344Z,12.31
2017-09-26T03:34:19.461Z,12.33
2017-09-26T03:36:47.812Z,12.29
2017-09-26T03:39:16.148Z,12.33
2017-09-26T03:41:44.496Z,12.37
2017-09-26T03:44:12.813Z,12.37
2017-09-26T03:46:41.193Z,12.34
2017-09-26T03:49:09.509Z,12.33
2017-09-26T03:51:37.934Z,12.36
2017-09-26T03:54:06.262Z,12.37
2017-09-26T03:56:34.668Z,12.35
2017-09-26T03:59:03.763Z,12.28
2017-09-26T04:01:32.942Z,12.33
2017-09-26T04:04:01.362Z,12.34
2017-09-26T04:06:30.465Z,12.37
2017-09-26T04:08:58.806Z,12.38
2017-09-26T04:11:27.123Z,12.38
2017-09-26T04:13:55.510Z,12.30
2017-09-26T04:16:23.831Z,12.35
2017-09-26T04:18:52.221Z,12.29
2017-09-26T04:21:21.323Z,12.27
2017-09-26T04:23:49.644Z,12.28
2017-09-26T04:26:17.979Z,12.33
2017-09-26T04:28:47.077Z,12.33
2017-09-26T04:31:16.300Z,12.35
2017-09-26T04:33:44.628Z,12.31
2017-09-26T04:36:12.977Z,12.35
2017-09-26T04:38:41.316Z,12.34
2017-09-26T04:41:09.794Z,12.35
2017-09-26T04:43:38.148Z,12.25
2017-09-26T04:46:07.282Z,12.34
2017-09-26T04:48:35.627Z,12.27
2017-09-26T04:51:03.939Z,12.33
2017-09-26T04:53:33.039Z,12.34
2017-09-26T04:56:01.417Z,12.35
2017-09-26T04:58:29.787Z,12.38
2017-09-26T05:00:58.139Z,12.39
2017-09-26T05:03:26.631Z,12.30
2017-09-26T05:05:55.249Z,12.31
2017-09-26T05:08:24.416Z,12.31
2017-09-26T05:10:52.790Z,12.33
2017-09-26T05:13:21.206Z,12.36
2017-09-26T05:15:50.303Z,12.39
2017-09-26T05:18:18.654Z,12.32
2017-09-26T05:20:46.977Z,12.38
2017-09-26T05:23:15.299Z,12.39
2017-09-26T05:25:43.635Z,12.39
2017-09-26T05:28:12.088Z,12.23
2017-09-26T05:30:41.218Z,12.29
2017-09-26T05:33:09.557Z,12.33
2017-09-26T05:35:38.264Z,12.36
2017-09-26T05:38:07.348Z,12.28
2017-09-26T05:40:36.450Z,12.31
2017-09-26T05:43:05.558Z,12.31
2017-09-26T05:45:34.755Z,12.30
2017-09-26T05:48:14.962Z,12.32
2017-09-26T05:50:45.568Z,12.36
2017-09-26T05:53:14.035Z,12.40
2017-09-26T05:55:42.367Z,12.44
2017-09-26T05:58:16.352Z,12.45
2017-09-26T06:00:46.915Z,12.44
2017-09-26T06:03:15.261Z,12.45
2017-09-26T06:05:44.541Z,12.48
2017-09-26T06:08:12.874Z,12.53
2017-09-26T06:10:41.602Z,12.59
2017-09-26T06:13:10.695Z,12.61
2017-09-26T06:15:41.940Z,12.53
2017-09-26T06:18:13.238Z,12.63
2017-09-26T06:20:44.921Z,12.55
2017-09-26T06:23:13.313Z,12.58
2017-09-26T06:25:42.402Z,12.61
2017-09-26T06:28:10.815Z,12.60
2017-09-26T06:30:39.935Z,12.63
2017-09-26T06:33:08.389Z,12.66
2017-09-26T06:35:37.507Z,12.66
2017-09-26T06:38:05.851Z,12.68
2017-09-26T06:40:34.959Z,12.73
2017-09-26T06:43:04.044Z,12.83
2017-09-26T06:45:32.416Z,12.89
2017-09-26T06:48:00.748Z,12.95
2017-09-26T06:50:34.118Z,12.98
2017-09-26T06:53:02.561Z,12.98
2017-09-26T06:55:30.929Z,12.96
2017-09-26T06:57:59.247Z,13.03
2017-09-26T07:00:28.342Z,13.08
2017-09-26T07:02:57.443Z,13.18
2017-09-26T07:05:26.534Z,13.26
2017-09-26T07:07:55.652Z,13.23
2017-09-26T07:10:23.991Z,13.30
2017-09-26T07:12:52.591Z,13.37
2017-09-26T07:15:20.902Z,13.40
2017-09-26T07:17:49.225Z,13.43
2017-09-26T07:20:17.580Z,13.39
2017-09-26T07:22:45.914Z,13.47
2017-09-26T07:25:15.029Z,13.50
2017-09-26T07:27:43.357Z,13.53
2017-09-26T07:30:11.700Z,13.50
2017-09-26T07:32:40.015Z,13.52
2017-09-26T07:35:08.397Z,13.54
2017-09-26T07:37:36.738Z,13.49
2017-09-26T07:40:05.356Z,13.54
2017-09-26T07:42:33.673Z,13.60
2017-09-26T07:45:02.771Z,13.69
2017-09-26T07:47:32.120Z,13.77
2017-09-26T07:50:00.463Z,13.85
2017-09-26T07:52:28.849Z,13.89
2017-09-26T07:54:57.175Z,13.98
2017-09-26T07:57:25.520Z,14.07
2017-09-26T07:59:53.859Z,14.14
2017-09-26T08:02:22.510Z,14.24
2017-09-26T08:04:53.264Z,14.31
2017-09-26T08:07:23.293Z,14.41
2017-09-26T08:09:55.458Z,14.52
2017-09-26T08:12:24.366Z,14.60
2017-09-26T08:14:54.395Z,14.68
2017-09-26T08:17:23.214Z,14.77
2017-09-26T08:19:52.187Z,14.83
2017-09-26T08:22:21.244Z,14.87
2017-09-26T08:24:50.170Z,14.91
2017-09-26T08:27:20.067Z,14.97
2017-09-26T08:29:49.173Z,15.03
2017-09-26T08:32:18.310Z,15.12
2017-09-26T08:34:46.639Z,15.21
2017-09-26T08:37:15.790Z,15.26
2017-09-26T08:39:44.144Z,15.36
2017-09-26T08:42:12.471Z,15.40
2017-09-26T08:44:40.818Z,15.42
2017-09-26T08:47:09.196Z,15.46
2017-09-26T08:49:37.586Z,15.51
2017-09-26T08:52:05.950Z,15.58
2017-09-26T08:54:34.341Z,15.63
2017-09-26T08:57:02.670Z,15.71
2017-09-26T08:59:31.994Z,15.79
2017-09-26T09:02:02.211Z,15.90
2017-09-26T09:04:31.311Z,15.98
2017-09-26T09:07:00.407Z,16.03
2017-09-26T09:09:29.782Z,16.11
2017-09-26T09:11:58.115Z,16.20
2017-09-26T09:14:26.449Z,16.25
2017-09-26T09:16:54.809Z,16.34
2017-09-26T09:19:23.135Z,16.41
2017-09-26T09:21:51.486Z,16.48
2017-09-26T09:24:19.816Z,16.51
2017-09-26T09:26:48.169Z,16.51
2017-09-26T09:29:17.259Z,16.52
2017-09-26T09:31:46.736Z,16.57
2017-09-26T09:34:15.079Z,16.62
2017-09-26T09:36:43.416Z,16.62
2017-09-26T09:39:12.548Z,16.67
2017-09-26T09:41:40.855Z,16.68
2017-09-26T09:44:09.249Z,16.71
2017-09-26T09:46:37.590Z,16.73
2017-09-26T09:49:05.956Z,16.84
2017-09-26T09:51:34.293Z,16.87
2017-09-26T09:54:02.916Z,16.89
2017-09-26T09:56:31.238Z,16.93
2017-09-26T09:58:59.588Z,17.01
2017-09-26T10:01:27.941Z,17.09
2017-09-26T10:03:57.137Z,17.15
2017-09-26T10:06:26.251Z,17.18
2017-09-26T10:08:54.571Z,17.17
2017-09-26T10:11:22.924Z,17.23
2017-09-26T10:13:51.243Z,17.26
2017-09-26T10:16:20.162Z,17.30
2017-09-26T10:18:48.504Z,17.29
2017-09-26T10:21:16.839Z,17.36
2017-09-26T10:23:45.193Z,17.45
2017-09-26T10:26:14.289Z,17.49
2017-09-26T10:28:43.392Z,17.54
2017-09-26T10:31:11.751Z,17.62
2017-09-26T10:33:40.100Z,17.70
2017-09-26T10:36:08.432Z,17.71
2017-09-26T10:38:36.785Z,17.70
2017-09-26T10:41:05.141Z,17.73
2017-09-26T10:43:33.464Z,17.73
2017-09-26T10:46:01.839Z,17.82
2017-09-26T10:48:30.957Z,17.87
2017-09-26T10:50:59.296Z,17.94
2017-09-26T10:53:27.613Z,18.01
2017-09-26T10:55:57.643Z,18.09
2017-09-26T10:58:25.991Z,18.08
2017-09-26T11:00:55.106Z,18.14
2017-09-26T11:03:24.223Z,18.21
2017-09-26T11:05:52.545Z,18.31
2017-09-26T11:08:23.062Z,18.27
2017-09-26T11:10:51.519Z,18.21
2017-09-26T11:13:19.851Z,18.29
2017-09-26T11:15:48.265Z,18.31
2017-09-26T11:18:16.690Z,18.32
2017-09-26T11:20:45.044Z,18.35
2017-09-26T11:23:13.422Z,18.39
2017-09-26T11:25:42.204Z,18.34
2017-09-26T11:28:10.582Z,18.44
2017-09-26T11:30:40.084Z,18.49
2017-09-26T11:33:08.432Z,18.54
2017-09-26T11:35:37.530Z,18.56
2017-09-26T11:38:07.058Z,18.62
2017-09-26T11:40:36.150Z,18.65
2017-09-26T11:43:04.487Z,18.67
2017-09-26T11:45:32.841Z,18.71
2017-09-26T11:48:01.593Z,18.72
2017-09-26T11:50:29.951Z,18.76
2017-09-26T11:52:58.297Z,18.79
2017-09-26T11:55:26.663Z,18.83
2017-09-26T11:57:54.985Z,18.84
2017-09-26T12:00:23.328Z,18.84
2017-09-26T12:02:51.675Z,18.88
2017-09-26T12:05:20.560Z,18.91
2017-09-26T12:07:49.646Z,18.91
2017-09-26T12:10:19.060Z,18.94
2017-09-26T12:12:53.441Z,18.93
2017-09-26T12:15:21.778Z,18.86
2017-09-26T12:17:50.112Z,18.88
2017-09-26T12:20:18.450Z,18.93
2017-09-26T12:22:47.722Z,18.98
2017-09-26T12:25:16.812Z,19.01
2017-09-26T12:27:45.477Z,19.07
2017-09-26T12:30:13.824Z,19.05
2017-09-26T12:32:42.143Z,19.12
2017-09-26T12:35:10.484Z,19.19
2017-09-26T12:37:38.939Z,19.25
2017-09-26T12:40:11.967Z,19.25
2017-09-26T12:42:40.336Z,19.37
2017-09-26T12:45:08.685Z,19.45
2017-09-26T12:47:37.064Z,19.51
2017-09-26T12:50:05.419Z,19.45
2017-09-26T12:52:34.528Z,19.51
2017-09-26T12:55:02.858Z,19.56
2017-09-26T12:57:31.220Z,19.59
2017-09-26T12:59:59.539Z,19.60
2017-09-26T13:02:27.890Z,19.61
2017-09-26T13:04:56.226Z,19.73
2017-09-26T13:07:25.046Z,19.75
2017-09-26T13:09:53.578Z,19.72
2017-09-26T13:12:22.164Z,19.67
2017-09-26T13:14:50.985Z,19.67
2017-09-26T13:17:19.479Z,19.68
2017-09-26T13:19:47.866Z,19.75
2017-09-26T13:22:16.302Z,19.80
2017-09-26T13:24:45.406Z,19.86
2017-09-26T13:27:13.888Z,19.84
2017-09-26T13:29:43.020Z,19.82
2017-09-26T13:32:11.388Z,19.87
2017-09-26T13:34:39.737Z,19.83
2017-09-26T13:37:08.080Z,19.82
2017-09-26T13:39:36.419Z,19.73
2017-09-26T13:42:04.757Z,19.71
2017-09-26T13:44:33.102Z,19.73
2017-09-26T13:47:01.450Z,19.76
2017-09-26T13:49:30.119Z,19.73
2017-09-26T13:51:58.463Z,19.70
2017-09-26T13:54:27.590Z,19.66
2017-09-26T13:56:56.679Z,19.64
2017-09-26T13:59:25.004Z,19.69
2017-09-26T14:01:53.335Z,19.75
2017-09-26T14:04:22.035Z,19.76
2017-09-26T14:06:50.394Z,19.73
2017-09-26T14:09:18.856Z,19.78
2017-09-26T14:11:47.313Z,19.87
2017-09-26T14:14:15.818Z,19.95
2017-09-26T14:16:44.249Z,20.01
2017-09-26T14:19:12.716Z,20.10
2017-09-26T14:21:41.046Z,20.28
2017-09-26T14:24:09.443Z,20.42
2017-09-26T14:26:37.888Z,20.42
2017-09-26T14:29:07.071Z,20.35
2017-09-26T14:31:36.318Z,20.26
2017-09-26T14:34:04.672Z,20.24
2017-09-26T14:36:33.011Z,20.30
2017-09-26T14:39:01.318Z,20.12
2017-09-26T14:41:30.666Z,20.02
2017-09-26T14:43:58.980Z,19.92
2017-09-26T14:46:27.332Z,19.89
2017-09-26T14:48:55.693Z,19.77
2017-09-26T14:51:24.148Z,19.83
2017-09-26T14:53:53.370Z,19.82
2017-09-26T14:56:21.755Z,19.74
2017-09-26T14:58:51.458Z,19.73
2017-09-26T15:01:19.769Z,20.26
2017-09-26T15:03:48.107Z,20.70
2017-09-26T15:06:16.457Z,20.97
2017-09-26T15:08:45.557Z,21.25
2017-09-26T15:11:14.678Z,21.32
2017-09-26T15:13:43.010Z,21.57
2017-09-26T15:16:11.381Z,21.36
2017-09-26T15:18:42.120Z,21.20
2017-09-26T15:21:10.484Z,21.62
2017-09-26T15:23:39.289Z,21.98
2017-09-26T15:26:07.630Z,22.22
2017-09-26T15:28:36.016Z,22.58
2017-09-26T15:31:04.354Z,22.70
2017-09-26T15:33:33.788Z,23.03
2017-09-26T15:36:02.115Z,23.29
2017-09-26T15:38:30.463Z,23.27
2017-09-26T15:40:58.808Z,23.24
2017-09-26T15:43:27.904Z,23.25
2017-09-26T15:45:57.011Z,23.12
2017-09-26T15:48:26.110Z,22.98
2017-09-26T15:50:54.455Z,22.93
2017-09-26T15:53:22.808Z,22.83
2017-09-26T15:55:51.150Z,22.77
2017-09-26T15:58:19.522Z,22.66
2017-09-26T16:00:48.612Z,22.38
2017-09-26T16:03:17.745Z,22.15
2017-09-26T16:05:46.080Z,21.67
2017-09-26T16:08:15.431Z,21.28
2017-09-26T16:10:43.795Z,21.03
2017-09-26T16:13:12.128Z,20.89
2017-09-26T16:15:40.490Z,20.53
2017-09-26T16:18:08.835Z,20.27
2017-09-26T16:20:37.168Z,20.11
2017-09-26T16:23:05.498Z,19.89
2017-09-26T16:25:34.092Z,19.83
2017-09-26T16:28:02.435Z,19.54
2017-09-26T16:30:31.545Z,19.37
2017-09-26T16:32:59.903Z,19.19
2017-09-26T16:35:30.929Z,19.02
2017-09-26T16:37:59.281Z,18.75
2017-09-26T16:40:35.697Z,18.56
2017-09-26T16:43:05.075Z,18.53
2017-09-26T16:45:33.422Z,18.37
2017-09-26T16:48:01.764Z,18.26
2017-09-26T16:50:30.883Z,18.28
2017-09-26T16:52:59.212Z,18.19
2017-09-26T16:55:27.567Z,18.04
2017-09-26T16:57:55.912Z,17.83
2017-09-26T17:00:24.584Z,17.68
2017-09-26T17:02:53.668Z,17.72
2017-09-26T17:05:22.791Z,17.59
2017-09-26T17:07:51.156Z,17.42
2017-09-26T17:10:20.281Z,17.28
2017-09-26T17:12:48.623Z,17.23
2017-09-26T17:15:17.716Z,17.11
2017-09-26T17:17:46.319Z,17.03
2017-09-26T17:20:14.659Z,17.06
2017-09-26T17:22:42.989Z,17.06
2017-09-26T17:25:11.341Z,16.93
2017-09-26T17:27:40.435Z,16.75
2017-09-26T17:30:08.790Z,16.77
2017-09-26T17:32:37.127Z,16.71
2017-09-26T17:35:05.498Z,16.60
2017-09-26T17:37:33.849Z,16.54
2017-09-26T17:40:02.220Z,16.58
2017-09-26T17:42:30.570Z,16.46
2017-09-26T17:44:58.925Z,16.39
2017-09-26T17:47:27.289Z,16.29
2017-09-26T17:49:56.390Z,16.19
2017-09-26T17:52:24.764Z,16.15
2017-09-26T17:54:53.870Z,16.01
2017-09-26T17:57:22.233Z,15.98
2017-09-26T17:59:51.365Z,15.78
2017-09-26T18:02:19.747Z,15.72
2017-09-26T18:04:48.105Z,15.81
2017-09-26T18:07:17.408Z,15.78
2017-09-26T18:09:46.568Z,15.81
2017-09-26T18:12:14.911Z,15.63
2017-09-26T18:14:43.527Z,15.61
2017-09-26T18:17:11.873Z,15.61
2017-09-26T18:19:40.240Z,15.53
2017-09-26T18:22:08.581Z,15.44
2017-09-26T18:24:36.930Z,15.45
2017-09-26T18:27:05.302Z,15.35
2017-09-26T18:29:33.647Z,15.27
2017-09-26T18:32:02.002Z,15.03
2017-09-26T18:34:31.105Z,14.90
2017-09-26T18:37:00.804Z,15.04
2017-09-26T18:39:29.155Z,15.10
2017-09-26T18:41:57.552Z,14.91
2017-09-26T18:44:25.896Z,14.87
2017-09-26T18:46:54.233Z,14.68
2017-09-26T18:49:26.777Z,14.70
2017-09-26T18:51:55.131Z,14.68
2017-09-26T18:54:23.495Z,14.67
2017-09-26T18:56:51.837Z,14.69
2017-09-26T18:59:20.172Z,14.50
2017-09-26T19:01:48.553Z,14.53
2017-09-26T19:04:16.880Z,14.51
2017-09-26T19:06:45.544Z,14.46
2017-09-26T19:09:13.884Z,14.39
2017-09-26T19:11:42.211Z,14.44
2017-09-26T19:14:10.589Z,14.16
2017-09-26T19:16:38.942Z,14.24
2017-09-26T19:19:07.287Z,14.04
2017-09-26T19:21:36.380Z,13.96
2017-09-26T19:24:05.055Z,14.04
2017-09-26T19:26:33.420Z,14.10
2017-09-26T19:29:01.800Z,14.00
2017-09-26T19:31:30.167Z,13.92
2017-09-26T19:33:58.518Z,13.97
2017-09-26T19:36:26.907Z,13.79
2017-09-26T19:38:56.160Z,13.81
2017-09-26T19:41:24.548Z,13.67
2017-09-26T19:43:53.748Z,13.76
2017-09-26T19:46:22.838Z,13.75
2017-09-26T19:48:52.067Z,13.75
2017-09-26T19:51:20.414Z,13.65
2017-09-26T19:53:49.535Z,13.54
2017-09-26T19:56:17.870Z,13.64
2017-09-26T19:58:46.580Z,13.51
2017-09-26T20:01:14.921Z,13.63
2017-09-26T20:03:43.247Z,13.43
2017-09-26T20:06:12.569Z,13.39
2017-09-26T20:08:41.843Z,13.35
2017-09-26T20:11:11.795Z,13.46
2017-09-26T20:13:40.134Z,13.34
2017-09-26T20:16:12.296Z,13.28
2017-09-26T20:18:40.651Z,13.17
2017-09-26T20:21:09.004Z,13.01
2017-09-26T20:23:37.366Z,13.11
2017-09-26T20:26:05.709Z,13.10
2017-09-26T20:28:34.055Z,13.08
2017-09-26T20:31:02.396Z,13.01
2017-09-26T20:33:31.236Z,13.11
2017-09-26T20:35:59.752Z,13.11
2017-09-26T20:38:28.930Z,12.96
2017-09-26T20:40:57.281Z,13.01
2017-09-26T20:43:25.607Z,13.09
2017-09-26T20:45:54.733Z,13.07
2017-09-26T20:48:23.062Z,12.85
2017-09-26T20:50:51.423Z,12.89
2017-09-26T20:53:19.783Z,12.92
2017-09-26T20:55:48.107Z,12.91
2017-09-26T20:58:16.558Z,12.84
2017-09-26T21:00:44.899Z,12.75
2017-09-26T21:03:14.272Z,12.72
2017-09-26T21:05:42.632Z,12.74
2017-09-26T21:08:10.964Z,12.85
2017-09-26T21:10:39.320Z,12.78
2017-09-26T21:13:07.687Z,12.66
2017-09-26T21:15:36.032Z,12.53
2017-09-26T21:18:05.137Z,12.67
2017-09-26T21:20:33.800Z,12.72
2017-09-26T21:23:02.135Z,12.66
2017-09-26T21:25:31.228Z,12.75
2017-09-26T21:27:59.574Z,12.64
2017-09-26T21:30:27.901Z,12.55
2017-09-26T21:32:57.038Z,12.62
2017-09-26T21:35:25.358Z,12.62
2017-09-26T21:37:53.725Z,12.60
2017-09-26T21:40:22.044Z,12.34
2017-09-26T21:42:51.167Z,12.30
2017-09-26T21:45:19.501Z,12.33
2017-09-26T21:47:47.820Z,12.29
2017-09-26T21:50:16.147Z,12.26
2017-09-26T21:52:44.565Z,12.24
2017-09-26T21:55:13.923Z,12.26
2017-09-26T21:57:42.247Z,12.06
2017-09-26T22:00:11.888Z,12.20
2017-09-26T22:02:40.229Z,12.06
2017-09-26T22:05:09.325Z,11.95
2017-09-26T22:07:37.668Z,12.05
2017-09-26T22:10:06.004Z,12.16
2017-09-26T22:12:35.311Z,11.89
2017-09-26T22:15:03.651Z,11.96
2017-09-26T22:17:32.005Z,11.96
2017-09-26T22:20:00.361Z,11.83
2017-09-26T22:22:28.681Z,11.85
2017-09-26T22:24:57.024Z,11.85
2017-09-26T22:27:25.369Z,11.67
2017-09-26T22:29:53.703Z,11.63
2017-09-26T22:32:22.055Z,11.56
2017-09-26T22:34:50.388Z,11.70
2017-09-26T22:37:19.500Z,11.67
2017-09-26T22:39:47.827Z,11.69
2017-09-26T22:42:16.185Z,11.70
2017-09-26T22:44:44.534Z,11.57
2017-09-26T22:47:13.676Z,11.61
2017-09-26T22:49:42.000Z,11.70
2017-09-26T22:52:11.098Z,11.69
2017-09-26T22:54:39.449Z,11.46
2017-09-26T22:57:07.766Z,11.41
2017-09-26T22:59:36.896Z,11.38
2017-09-26T23:02:05.222Z,11.47
2017-09-26T23:04:33.813Z,11.44
2017-09-26T23:07:02.140Z,11.40
2017-09-26T23:09:30.488Z,11.40
2017-09-26T23:11:59.590Z,11.36
2017-09-26T23:14:28.426Z,11.23
2017-09-26T23:16:56.797Z,11.19
2017-09-26T23:19:25.896Z,11.17
2017-09-26T23:21:54.241Z,11.29
2017-09-26T23:24:22.581Z,11.26
2017-09-26T23:26:50.988Z,11.30
2017-09-26T23:29:20.119Z,11.20
2017-09-26T23:31:48.444Z,11.21
2017-09-26T23:34:16.870Z,11.23
2017-09-26T23:36:45.199Z,10.96
2017-09-26T23:39:13.799Z,10.94
2017-09-26T23:41:42.896Z,11.07
2017-09-26T23:44:11.215Z,11.06
2017-09-26T23:46:39.568Z,10.94
2017-09-26T23:49:08.669Z,10.75
2017-09-26T23:51:37.937Z,10.73
2017-09-26T23:54:06.277Z,10.79
2017-09-26T23:56:34.617Z,10.62
2017-09-26T23:59:03.702Z,10.71
